sensor_id;sensor_type;location;lat;lon;timestamp;P1;durP1;ratioP1;P2;durP2;ratioP2
76848;SDS011;65814;51.134;16.980;2024-01-06T00:00:47;36.50;;;20.60;;
76848;SDS011;65814;51.134;16.980;2024-01-06T00:03:37;40.30;;;21.00;;
76848;SDS011;65814;51.134;16.980;2024-01-06T00:06:05;35.40;;;20.90;;
76848;SDS011;65814;51.134;16.980;2024-01-06T00:08:33;36.90;;;20.00;;
76848;SDS011;65814;51.134;16.980;2024-01-06T00:11:03;33.40;;;19.20;;
76848;SDS011;65814;51.134;16.980;2024-01-06T00:13:31;38.80;;;20.20;;
76848;SDS011;65814;51.134;16.980;2024-01-06T00:16:00;32.10;;;18.20;;
76848;SDS011;65814;51.134;16.980;2024-01-06T00:18:28;34.30;;;18.30;;
76848;SDS011;65814;51.134;16.980;2024-01-06T00:20:56;31.80;;;19.50;;
76848;SDS011;65814;51.134;16.980;2024-01-06T00:23:24;35.50;;;21.10;;
76848;SDS011;65814;51.134;16.980;2024-01-06T00:25:52;47.50;;;20.40;;
76848;SDS011;65814;51.134;16.980;2024-01-06T00:28:20;36.50;;;18.40;;
76848;SDS011;65814;51.134;16.980;2024-01-06T00:30:48;34.50;;;18.80;;
76848;SDS011;65814;51.134;16.980;2024-01-06T00:33:16;34.50;;;18.10;;
76848;SDS011;65814;51.134;16.980;2024-01-06T00:35:45;39.00;;;19.80;;
76848;SDS011;65814;51.134;16.980;2024-01-06T00:38:13;32.80;;;18.90;;
76848;SDS011;65814;51.134;16.980;2024-01-06T00:40:40;36.10;;;20.10;;
76848;SDS011;65814;51.134;16.980;2024-01-06T00:43:09;31.40;;;18.50;;
76848;SDS011;65814;51.134;16.980;2024-01-06T00:45:37;36.90;;;19.70;;
76848;SDS011;65814;51.134;16.980;2024-01-06T00:48:05;34.10;;;19.30;;
76848;SDS011;65814;51.134;16.980;2024-01-06T00:50:34;33.30;;;19.00;;
76848;SDS011;65814;51.134;16.980;2024-01-06T00:53:01;37.20;;;20.70;;
76848;SDS011;65814;51.134;16.980;2024-01-06T00:55:29;36.60;;;20.80;;
76848;SDS011;65814;51.134;16.980;2024-01-06T00:57:57;38.60;;;22.00;;
76848;SDS011;65814;51.134;16.980;2024-01-06T01:00:25;36.10;;;21.40;;
76848;SDS011;65814;51.134;16.980;2024-01-06T01:02:55;35.70;;;21.30;;
76848;SDS011;65814;51.134;16.980;2024-01-06T01:05:23;36.60;;;20.70;;
76848;SDS011;65814;51.134;16.980;2024-01-06T01:07:51;41.70;;;22.30;;
76848;SDS011;65814;51.134;16.980;2024-01-06T01:10:19;40.70;;;21.50;;
76848;SDS011;65814;51.134;16.980;2024-01-06T01:12:47;39.20;;;19.50;;
76848;SDS011;65814;51.134;16.980;2024-01-06T01:15:15;35.70;;;20.20;;
76848;SDS011;65814;51.134;16.980;2024-01-06T01:17:43;34.60;;;20.10;;
76848;SDS011;65814;51.134;16.980;2024-01-06T01:20:11;34.00;;;19.30;;
76848;SDS011;65814;51.134;16.980;2024-01-06T01:22:39;33.10;;;18.60;;
76848;SDS011;65814;51.134;16.980;2024-01-06T01:25:07;37.10;;;19.20;;
76848;SDS011;65814;51.134;16.980;2024-01-06T01:27:36;31.70;;;18.40;;
76848;SDS011;65814;51.134;16.980;2024-01-06T01:30:04;33.90;;;17.70;;
76848;SDS011;65814;51.134;16.980;2024-01-06T01:32:33;32.60;;;18.30;;
76848;SDS011;65814;51.134;16.980;2024-01-06T01:35:01;37.00;;;19.00;;
76848;SDS011;65814;51.134;16.980;2024-01-06T01:37:30;34.70;;;17.90;;
76848;SDS011;65814;51.134;16.980;2024-01-06T01:39:59;33.40;;;17.30;;
76848;SDS011;65814;51.134;16.980;2024-01-06T01:42:27;42.00;;;21.60;;
76848;SDS011;65814;51.134;16.980;2024-01-06T01:44:55;47.90;;;23.30;;
76848;SDS011;65814;51.134;16.980;2024-01-06T01:47:23;35.10;;;19.90;;
76848;SDS011;65814;51.134;16.980;2024-01-06T01:49:52;37.90;;;19.40;;
76848;SDS011;65814;51.134;16.980;2024-01-06T01:52:21;37.80;;;20.10;;
76848;SDS011;65814;51.134;16.980;2024-01-06T01:54:52;36.40;;;19.30;;
76848;SDS011;65814;51.134;16.980;2024-01-06T01:57:20;40.80;;;20.00;;
76848;SDS011;65814;51.134;16.980;2024-01-06T01:59:48;35.60;;;19.60;;
76848;SDS011;65814;51.134;16.980;2024-01-06T02:02:16;34.80;;;19.20;;
76848;SDS011;65814;51.134;16.980;2024-01-06T02:04:45;31.90;;;18.90;;
76848;SDS011;65814;51.134;16.980;2024-01-06T02:07:13;39.60;;;19.90;;
76848;SDS011;65814;51.134;16.980;2024-01-06T02:09:40;37.70;;;20.40;;
76848;SDS011;65814;51.134;16.980;2024-01-06T02:12:08;30.80;;;18.80;;
76848;SDS011;65814;51.134;16.980;2024-01-06T02:14:37;36.50;;;20.80;;
76848;SDS011;65814;51.134;16.980;2024-01-06T02:17:05;37.50;;;20.70;;
76848;SDS011;65814;51.134;16.980;2024-01-06T02:19:32;32.70;;;19.90;;
76848;SDS011;65814;51.134;16.980;2024-01-06T02:22:00;35.00;;;19.30;;
76848;SDS011;65814;51.134;16.980;2024-01-06T02:24:28;35.10;;;20.10;;
76848;SDS011;65814;51.134;16.980;2024-01-06T02:26:56;38.80;;;20.20;;
76848;SDS011;65814;51.134;16.980;2024-01-06T02:29:24;35.20;;;20.30;;
76848;SDS011;65814;51.134;16.980;2024-01-06T02:31:52;31.20;;;19.30;;
76848;SDS011;65814;51.134;16.980;2024-01-06T02:34:20;33.50;;;20.10;;
76848;SDS011;65814;51.134;16.980;2024-01-06T02:36:48;37.00;;;20.90;;
76848;SDS011;65814;51.134;16.980;2024-01-06T02:39:16;40.30;;;20.30;;
76848;SDS011;65814;51.134;16.980;2024-01-06T02:41:44;34.60;;;19.90;;
76848;SDS011;65814;51.134;16.980;2024-01-06T02:44:12;36.10;;;19.80;;
76848;SDS011;65814;51.134;16.980;2024-01-06T02:46:41;35.30;;;19.20;;
76848;SDS011;65814;51.134;16.980;2024-01-06T02:49:09;33.50;;;19.70;;
76848;SDS011;65814;51.134;16.980;2024-01-06T02:51:37;38.20;;;19.10;;
76848;SDS011;65814;51.134;16.980;2024-01-06T02:54:24;32.20;;;16.20;;
76848;SDS011;65814;51.134;16.980;2024-01-06T02:56:52;38.00;;;19.70;;
76848;SDS011;65814;51.134;16.980;2024-01-06T02:59:20;33.50;;;18.70;;
76848;SDS011;65814;51.134;16.980;2024-01-06T03:01:48;38.20;;;19.00;;
76848;SDS011;65814;51.134;16.980;2024-01-06T03:04:16;31.30;;;18.00;;
76848;SDS011;65814;51.134;16.980;2024-01-06T03:06:44;31.60;;;17.90;;
76848;SDS011;65814;51.134;16.980;2024-01-06T03:09:13;34.40;;;18.80;;
76848;SDS011;65814;51.134;16.980;2024-01-06T03:11:41;32.00;;;19.70;;
76848;SDS011;65814;51.134;16.980;2024-01-06T03:14:09;31.60;;;18.00;;
76848;SDS011;65814;51.134;16.980;2024-01-06T03:16:37;33.30;;;17.50;;
76848;SDS011;65814;51.134;16.980;2024-01-06T03:19:05;34.80;;;19.30;;
76848;SDS011;65814;51.134;16.980;2024-01-06T03:21:34;31.20;;;19.50;;
76848;SDS011;65814;51.134;16.980;2024-01-06T03:24:02;33.50;;;19.00;;
76848;SDS011;65814;51.134;16.980;2024-01-06T03:26:31;36.40;;;19.90;;
76848;SDS011;65814;51.134;16.980;2024-01-06T03:28:59;33.20;;;19.60;;
76848;SDS011;65814;51.134;16.980;2024-01-06T03:31:30;31.90;;;17.50;;
76848;SDS011;65814;51.134;16.980;2024-01-06T03:33:58;32.70;;;18.90;;
76848;SDS011;65814;51.134;16.980;2024-01-06T03:36:29;31.20;;;19.50;;
76848;SDS011;65814;51.134;16.980;2024-01-06T03:38:57;30.80;;;17.00;;
76848;SDS011;65814;51.134;16.980;2024-01-06T03:41:25;33.30;;;18.70;;
76848;SDS011;65814;51.134;16.980;2024-01-06T03:43:53;34.40;;;19.10;;
76848;SDS011;65814;51.134;16.980;2024-01-06T03:46:21;34.10;;;18.90;;
76848;SDS011;65814;51.134;16.980;2024-01-06T03:48:49;37.60;;;18.80;;
76848;SDS011;65814;51.134;16.980;2024-01-06T03:51:18;32.30;;;18.30;;
76848;SDS011;65814;51.134;16.980;2024-01-06T03:53:46;37.30;;;19.80;;
76848;SDS011;65814;51.134;16.980;2024-01-06T03:56:17;28.30;;;18.80;;
76848;SDS011;65814;51.134;16.980;2024-01-06T03:58:46;35.10;;;17.20;;
76848;SDS011;65814;51.134;16.980;2024-01-06T04:01:14;29.30;;;17.60;;
76848;SDS011;65814;51.134;16.980;2024-01-06T04:03:42;37.70;;;19.70;;
76848;SDS011;65814;51.134;16.980;2024-01-06T04:06:10;35.70;;;19.20;;
76848;SDS011;65814;51.134;16.980;2024-01-06T04:08:41;34.40;;;19.00;;
76848;SDS011;65814;51.134;16.980;2024-01-06T04:11:09;35.20;;;18.70;;
76848;SDS011;65814;51.134;16.980;2024-01-06T04:13:37;32.40;;;18.70;;
76848;SDS011;65814;51.134;16.980;2024-01-06T04:16:05;30.40;;;17.50;;
76848;SDS011;65814;51.134;16.980;2024-01-06T04:18:33;36.90;;;18.30;;
76848;SDS011;65814;51.134;16.980;2024-01-06T04:21:01;35.50;;;18.70;;
76848;SDS011;65814;51.134;16.980;2024-01-06T04:23:29;33.80;;;19.30;;
76848;SDS011;65814;51.134;16.980;2024-01-06T04:25:57;33.60;;;19.00;;
76848;SDS011;65814;51.134;16.980;2024-01-06T04:28:25;32.70;;;18.40;;
76848;SDS011;65814;51.134;16.980;2024-01-06T04:30:53;31.40;;;17.80;;
76848;SDS011;65814;51.134;16.980;2024-01-06T04:33:21;32.80;;;18.80;;
76848;SDS011;65814;51.134;16.980;2024-01-06T04:35:49;35.30;;;17.90;;
76848;SDS011;65814;51.134;16.980;2024-01-06T04:38:17;35.40;;;20.00;;
76848;SDS011;65814;51.134;16.980;2024-01-06T04:40:45;35.10;;;18.90;;
76848;SDS011;65814;51.134;16.980;2024-01-06T04:43:13;37.40;;;19.50;;
76848;SDS011;65814;51.134;16.980;2024-01-06T04:45:41;36.00;;;21.30;;
76848;SDS011;65814;51.134;16.980;2024-01-06T04:48:09;36.30;;;20.10;;
76848;SDS011;65814;51.134;16.980;2024-01-06T04:50:37;39.40;;;20.00;;
76848;SDS011;65814;51.134;16.980;2024-01-06T04:53:05;34.70;;;19.00;;
76848;SDS011;65814;51.134;16.980;2024-01-06T04:55:33;35.90;;;20.70;;
76848;SDS011;65814;51.134;16.980;2024-01-06T04:58:01;37.40;;;18.30;;
76848;SDS011;65814;51.134;16.980;2024-01-06T05:00:29;41.40;;;21.10;;
76848;SDS011;65814;51.134;16.980;2024-01-06T05:02:58;42.60;;;22.90;;
76848;SDS011;65814;51.134;16.980;2024-01-06T05:05:26;36.90;;;20.60;;
76848;SDS011;65814;51.134;16.980;2024-01-06T05:07:56;31.80;;;17.30;;
76848;SDS011;65814;51.134;16.980;2024-01-06T05:10:24;35.30;;;17.20;;
76848;SDS011;65814;51.134;16.980;2024-01-06T05:12:52;33.10;;;18.00;;
76848;SDS011;65814;51.134;16.980;2024-01-06T05:15:20;31.00;;;18.40;;
76848;SDS011;65814;51.134;16.980;2024-01-06T05:17:48;27.80;;;17.70;;
76848;SDS011;65814;51.134;16.980;2024-01-06T05:20:16;33.30;;;18.70;;
76848;SDS011;65814;51.134;16.980;2024-01-06T05:22:44;37.00;;;17.40;;
76848;SDS011;65814;51.134;16.980;2024-01-06T05:25:12;36.40;;;18.80;;
76848;SDS011;65814;51.134;16.980;2024-01-06T05:27:39;31.00;;;18.40;;
76848;SDS011;65814;51.134;16.980;2024-01-06T05:30:08;38.70;;;18.80;;
76848;SDS011;65814;51.134;16.980;2024-01-06T05:32:37;34.50;;;18.00;;
76848;SDS011;65814;51.134;16.980;2024-01-06T05:35:05;36.20;;;19.00;;
76848;SDS011;65814;51.134;16.980;2024-01-06T05:37:35;37.90;;;18.10;;
76848;SDS011;65814;51.134;16.980;2024-01-06T05:40:06;36.80;;;18.80;;
76848;SDS011;65814;51.134;16.980;2024-01-06T05:42:34;33.40;;;17.90;;
76848;SDS011;65814;51.134;16.980;2024-01-06T05:45:02;36.90;;;18.80;;
76848;SDS011;65814;51.134;16.980;2024-01-06T05:47:32;32.00;;;18.30;;
76848;SDS011;65814;51.134;16.980;2024-01-06T05:50:00;35.60;;;17.20;;
76848;SDS011;65814;51.134;16.980;2024-01-06T05:52:28;35.40;;;18.90;;
76848;SDS011;65814;51.134;16.980;2024-01-06T05:54:56;32.60;;;17.30;;
76848;SDS011;65814;51.134;16.980;2024-01-06T05:57:27;34.60;;;17.50;;
76848;SDS011;65814;51.134;16.980;2024-01-06T05:59:55;32.80;;;17.10;;
76848;SDS011;65814;51.134;16.980;2024-01-06T06:02:23;35.50;;;19.30;;
76848;SDS011;65814;51.134;16.980;2024-01-06T06:04:51;31.90;;;17.40;;
76848;SDS011;65814;51.134;16.980;2024-01-06T06:07:20;35.30;;;17.80;;
76848;SDS011;65814;51.134;16.980;2024-01-06T06:09:48;37.30;;;18.80;;
76848;SDS011;65814;51.134;16.980;2024-01-06T06:12:16;30.60;;;16.10;;
76848;SDS011;65814;51.134;16.980;2024-01-06T06:14:44;33.10;;;17.90;;
76848;SDS011;65814;51.134;16.980;2024-01-06T06:17:12;38.70;;;18.30;;
76848;SDS011;65814;51.134;16.980;2024-01-06T06:19:40;34.50;;;16.30;;
76848;SDS011;65814;51.134;16.980;2024-01-06T06:22:11;30.40;;;16.50;;
76848;SDS011;65814;51.134;16.980;2024-01-06T06:24:40;31.80;;;16.90;;
76848;SDS011;65814;51.134;16.980;2024-01-06T06:27:08;34.00;;;15.80;;
76848;SDS011;65814;51.134;16.980;2024-01-06T06:29:36;32.40;;;16.70;;
76848;SDS011;65814;51.134;16.980;2024-01-06T06:32:04;32.90;;;16.80;;
76848;SDS011;65814;51.134;16.980;2024-01-06T06:34:32;34.70;;;18.60;;
76848;SDS011;65814;51.134;16.980;2024-01-06T06:37:00;32.80;;;17.20;;
76848;SDS011;65814;51.134;16.980;2024-01-06T06:39:28;34.80;;;18.40;;
76848;SDS011;65814;51.134;16.980;2024-01-06T06:41:57;32.00;;;17.80;;
76848;SDS011;65814;51.134;16.980;2024-01-06T06:44:25;32.90;;;17.60;;
76848;SDS011;65814;51.134;16.980;2024-01-06T06:46:53;30.30;;;15.90;;
76848;SDS011;65814;51.134;16.980;2024-01-06T06:49:21;29.60;;;15.80;;
76848;SDS011;65814;51.134;16.980;2024-01-06T06:51:49;27.30;;;15.00;;
76848;SDS011;65814;51.134;16.980;2024-01-06T06:54:17;29.00;;;15.30;;
76848;SDS011;65814;51.134;16.980;2024-01-06T06:56:45;30.10;;;16.70;;
76848;SDS011;65814;51.134;16.980;2024-01-06T06:59:13;28.90;;;15.40;;
76848;SDS011;65814;51.134;16.980;2024-01-06T07:01:41;27.40;;;14.60;;
76848;SDS011;65814;51.134;16.980;2024-01-06T07:04:10;27.00;;;15.70;;
76848;SDS011;65814;51.134;16.980;2024-01-06T07:06:38;29.10;;;16.90;;
76848;SDS011;65814;51.134;16.980;2024-01-06T07:09:06;28.40;;;14.50;;
76848;SDS011;65814;51.134;16.980;2024-01-06T07:11:34;33.10;;;17.90;;
76848;SDS011;65814;51.134;16.980;2024-01-06T07:14:02;29.40;;;16.10;;
76848;SDS011;65814;51.134;16.980;2024-01-06T07:16:29;29.70;;;17.00;;
76848;SDS011;65814;51.134;16.980;2024-01-06T07:18:57;29.80;;;14.20;;
76848;SDS011;65814;51.134;16.980;2024-01-06T07:21:26;27.50;;;15.00;;
76848;SDS011;65814;51.134;16.980;2024-01-06T07:23:53;26.00;;;15.10;;
76848;SDS011;65814;51.134;16.980;2024-01-06T07:26:21;25.80;;;15.40;;
76848;SDS011;65814;51.134;16.980;2024-01-06T07:28:49;29.00;;;16.10;;
76848;SDS011;65814;51.134;16.980;2024-01-06T07:31:17;28.40;;;15.90;;
76848;SDS011;65814;51.134;16.980;2024-01-06T07:33:45;27.70;;;15.10;;
76848;SDS011;65814;51.134;16.980;2024-01-06T07:36:13;27.90;;;15.80;;
76848;SDS011;65814;51.134;16.980;2024-01-06T07:38:41;25.40;;;14.20;;
76848;SDS011;65814;51.134;16.980;2024-01-06T07:41:09;30.80;;;16.20;;
76848;SDS011;65814;51.134;16.980;2024-01-06T07:43:38;32.50;;;16.30;;
76848;SDS011;65814;51.134;16.980;2024-01-06T07:46:06;24.90;;;13.60;;
76848;SDS011;65814;51.134;16.980;2024-01-06T07:48:35;23.10;;;14.20;;
76848;SDS011;65814;51.134;16.980;2024-01-06T07:51:03;24.90;;;13.90;;
76848;SDS011;65814;51.134;16.980;2024-01-06T07:53:31;28.60;;;15.80;;
76848;SDS011;65814;51.134;16.980;2024-01-06T07:55:59;25.10;;;13.60;;
76848;SDS011;65814;51.134;16.980;2024-01-06T07:58:27;26.40;;;13.60;;
76848;SDS011;65814;51.134;16.980;2024-01-06T08:00:56;24.00;;;13.90;;
76848;SDS011;65814;51.134;16.980;2024-01-06T08:03:24;23.50;;;14.10;;
76848;SDS011;65814;51.134;16.980;2024-01-06T08:05:53;27.50;;;15.50;;
76848;SDS011;65814;51.134;16.980;2024-01-06T08:08:21;27.30;;;15.10;;
76848;SDS011;65814;51.134;16.980;2024-01-06T08:10:49;26.10;;;14.00;;
76848;SDS011;65814;51.134;16.980;2024-01-06T08:13:17;26.90;;;14.00;;
76848;SDS011;65814;51.134;16.980;2024-01-06T08:15:46;27.80;;;14.10;;
76848;SDS011;65814;51.134;16.980;2024-01-06T08:18:13;26.80;;;13.00;;
76848;SDS011;65814;51.134;16.980;2024-01-06T08:20:42;26.20;;;14.00;;
76848;SDS011;65814;51.134;16.980;2024-01-06T08:23:10;21.70;;;12.80;;
76848;SDS011;65814;51.134;16.980;2024-01-06T08:25:38;23.00;;;13.20;;
76848;SDS011;65814;51.134;16.980;2024-01-06T08:28:06;30.50;;;14.60;;
76848;SDS011;65814;51.134;16.980;2024-01-06T08:30:34;22.20;;;13.90;;
76848;SDS011;65814;51.134;16.980;2024-01-06T08:33:02;23.80;;;12.60;;
76848;SDS011;65814;51.134;16.980;2024-01-06T08:35:30;22.40;;;13.90;;
76848;SDS011;65814;51.134;16.980;2024-01-06T08:37:59;22.10;;;13.10;;
76848;SDS011;65814;51.134;16.980;2024-01-06T08:40:27;23.20;;;12.80;;
76848;SDS011;65814;51.134;16.980;2024-01-06T08:42:55;22.70;;;12.80;;
76848;SDS011;65814;51.134;16.980;2024-01-06T08:45:23;25.70;;;12.50;;
76848;SDS011;65814;51.134;16.980;2024-01-06T08:47:51;24.50;;;12.80;;
76848;SDS011;65814;51.134;16.980;2024-01-06T08:50:18;24.10;;;12.90;;
76848;SDS011;65814;51.134;16.980;2024-01-06T08:52:46;23.20;;;13.40;;
76848;SDS011;65814;51.134;16.980;2024-01-06T08:55:14;25.30;;;13.30;;
76848;SDS011;65814;51.134;16.980;2024-01-06T08:57:44;25.10;;;14.30;;
76848;SDS011;65814;51.134;16.980;2024-01-06T09:00:12;24.00;;;14.00;;
76848;SDS011;65814;51.134;16.980;2024-01-06T09:02:40;25.10;;;15.10;;
76848;SDS011;65814;51.134;16.980;2024-01-06T09:05:08;21.50;;;14.10;;
76848;SDS011;65814;51.134;16.980;2024-01-06T09:07:36;28.00;;;15.40;;
76848;SDS011;65814;51.134;16.980;2024-01-06T09:10:04;24.00;;;12.70;;
76848;SDS011;65814;51.134;16.980;2024-01-06T09:12:32;25.80;;;13.80;;
76848;SDS011;65814;51.134;16.980;2024-01-06T09:15:00;25.10;;;13.40;;
76848;SDS011;65814;51.134;16.980;2024-01-06T09:17:28;22.30;;;13.20;;
76848;SDS011;65814;51.134;16.980;2024-01-06T09:19:57;23.00;;;13.80;;
76848;SDS011;65814;51.134;16.980;2024-01-06T09:22:25;28.00;;;13.80;;
76848;SDS011;65814;51.134;16.980;2024-01-06T09:24:54;25.60;;;14.20;;
76848;SDS011;65814;51.134;16.980;2024-01-06T09:27:22;22.20;;;13.60;;
76848;SDS011;65814;51.134;16.980;2024-01-06T09:29:50;21.90;;;14.20;;
76848;SDS011;65814;51.134;16.980;2024-01-06T09:32:18;26.50;;;13.90;;
76848;SDS011;65814;51.134;16.980;2024-01-06T09:34:46;27.00;;;15.40;;
76848;SDS011;65814;51.134;16.980;2024-01-06T09:37:14;25.40;;;13.50;;
76848;SDS011;65814;51.134;16.980;2024-01-06T09:39:43;26.60;;;14.20;;
76848;SDS011;65814;51.134;16.980;2024-01-06T09:42:11;24.90;;;13.60;;
76848;SDS011;65814;51.134;16.980;2024-01-06T09:44:39;26.30;;;15.00;;
76848;SDS011;65814;51.134;16.980;2024-01-06T09:47:07;27.90;;;13.90;;
76848;SDS011;65814;51.134;16.980;2024-01-06T09:49:39;24.00;;;13.70;;
76848;SDS011;65814;51.134;16.980;2024-01-06T09:52:13;21.10;;;13.50;;
76848;SDS011;65814;51.134;16.980;2024-01-06T09:54:50;26.30;;;14.80;;
76848;SDS011;65814;51.134;16.980;2024-01-06T09:57:20;25.10;;;14.00;;
76848;SDS011;65814;51.134;16.980;2024-01-06T09:59:49;23.30;;;13.00;;
76848;SDS011;65814;51.134;16.980;2024-01-06T10:02:16;23.80;;;13.70;;
76848;SDS011;65814;51.134;16.980;2024-01-06T10:04:44;23.10;;;14.20;;
76848;SDS011;65814;51.134;16.980;2024-01-06T10:07:13;21.40;;;13.70;;
76848;SDS011;65814;51.134;16.980;2024-01-06T10:09:41;25.70;;;14.90;;
76848;SDS011;65814;51.134;16.980;2024-01-06T10:12:10;25.50;;;14.60;;
76848;SDS011;65814;51.134;16.980;2024-01-06T10:14:38;25.00;;;14.60;;
76848;SDS011;65814;51.134;16.980;2024-01-06T10:17:07;27.20;;;15.40;;
76848;SDS011;65814;51.134;16.980;2024-01-06T10:19:35;25.80;;;14.10;;
76848;SDS011;65814;51.134;16.980;2024-01-06T10:22:06;28.40;;;14.00;;
76848;SDS011;65814;51.134;16.980;2024-01-06T10:24:36;20.60;;;13.30;;
76848;SDS011;65814;51.134;16.980;2024-01-06T10:27:05;26.20;;;13.90;;
76848;SDS011;65814;51.134;16.980;2024-01-06T10:29:34;24.90;;;12.80;;
76848;SDS011;65814;51.134;16.980;2024-01-06T10:32:02;25.50;;;13.50;;
76848;SDS011;65814;51.134;16.980;2024-01-06T10:34:31;22.30;;;13.40;;
76848;SDS011;65814;51.134;16.980;2024-01-06T10:37:00;25.70;;;12.20;;
76848;SDS011;65814;51.134;16.980;2024-01-06T10:39:28;23.80;;;13.70;;
76848;SDS011;65814;51.134;16.980;2024-01-06T10:41:57;23.90;;;13.80;;
76848;SDS011;65814;51.134;16.980;2024-01-06T10:44:25;25.50;;;13.40;;
76848;SDS011;65814;51.134;16.980;2024-01-06T10:46:53;18.70;;;12.20;;
76848;SDS011;65814;51.134;16.980;2024-01-06T10:49:22;24.70;;;12.70;;
76848;SDS011;65814;51.134;16.980;2024-01-06T10:51:51;24.30;;;12.90;;
76848;SDS011;65814;51.134;16.980;2024-01-06T10:54:19;24.00;;;13.20;;
76848;SDS011;65814;51.134;16.980;2024-01-06T10:56:48;26.00;;;12.80;;
76848;SDS011;65814;51.134;16.980;2024-01-06T10:59:16;20.40;;;13.50;;
76848;SDS011;65814;51.134;16.980;2024-01-06T11:01:46;20.90;;;13.10;;
76848;SDS011;65814;51.134;16.980;2024-01-06T11:04:14;23.80;;;13.50;;
76848;SDS011;65814;51.134;16.980;2024-01-06T11:06:43;23.90;;;14.30;;
76848;SDS011;65814;51.134;16.980;2024-01-06T11:09:13;22.70;;;14.20;;
76848;SDS011;65814;51.134;16.980;2024-01-06T11:12:01;25.00;;;13.60;;
76848;SDS011;65814;51.134;16.980;2024-01-06T11:14:29;23.70;;;14.20;;
76848;SDS011;65814;51.134;16.980;2024-01-06T11:16:58;25.50;;;14.60;;
76848;SDS011;65814;51.134;16.980;2024-01-06T11:24:49;20.40;;;14.30;;
76848;SDS011;65814;51.134;16.980;2024-01-06T11:27:26;23.20;;;13.60;;
76848;SDS011;65814;51.134;16.980;2024-01-06T11:29:58;27.20;;;16.00;;
76848;SDS011;65814;51.134;16.980;2024-01-06T11:32:34;27.60;;;17.00;;
76848;SDS011;65814;51.134;16.980;2024-01-06T11:37:42;28.90;;;16.80;;
76848;SDS011;65814;51.134;16.980;2024-01-06T11:43:04;30.50;;;17.70;;
76848;SDS011;65814;51.134;16.980;2024-01-06T11:45:35;31.90;;;18.60;;
76848;SDS011;65814;51.134;16.980;2024-01-06T11:48:05;34.40;;;18.80;;
76848;SDS011;65814;51.134;16.980;2024-01-06T11:50:35;35.50;;;18.80;;
76848;SDS011;65814;51.134;16.980;2024-01-06T11:53:05;34.60;;;18.30;;
76848;SDS011;65814;51.134;16.980;2024-01-06T11:55:34;39.70;;;20.00;;
76848;SDS011;65814;51.134;16.980;2024-01-06T11:58:02;40.90;;;21.40;;
76848;SDS011;65814;51.134;16.980;2024-01-06T12:00:35;34.90;;;20.00;;
76848;SDS011;65814;51.134;16.980;2024-01-06T12:03:08;35.90;;;19.40;;
76848;SDS011;65814;51.134;16.980;2024-01-06T12:05:36;35.70;;;20.70;;
76848;SDS011;65814;51.134;16.980;2024-01-06T12:08:05;36.20;;;20.60;;
76848;SDS011;65814;51.134;16.980;2024-01-06T12:10:35;37.10;;;20.10;;
76848;SDS011;65814;51.134;16.980;2024-01-06T12:13:05;39.20;;;19.90;;
76848;SDS011;65814;51.134;16.980;2024-01-06T12:15:36;38.80;;;20.20;;
76848;SDS011;65814;51.134;16.980;2024-01-06T12:18:08;40.10;;;21.00;;
76848;SDS011;65814;51.134;16.980;2024-01-06T12:20:37;35.70;;;19.70;;
76848;SDS011;65814;51.134;16.980;2024-01-06T12:23:05;40.80;;;21.40;;
76848;SDS011;65814;51.134;16.980;2024-01-06T12:25:34;38.40;;;20.40;;
76848;SDS011;65814;51.134;16.980;2024-01-06T12:30:37;37.60;;;21.00;;
76848;SDS011;65814;51.134;16.980;2024-01-06T12:33:06;37.80;;;20.70;;
76848;SDS011;65814;51.134;16.980;2024-01-06T12:35:34;41.70;;;20.00;;
76848;SDS011;65814;51.134;16.980;2024-01-06T12:38:03;38.30;;;21.30;;
76848;SDS011;65814;51.134;16.980;2024-01-06T12:40:35;37.20;;;20.00;;
76848;SDS011;65814;51.134;16.980;2024-01-06T12:43:08;41.10;;;22.50;;
76848;SDS011;65814;51.134;16.980;2024-01-06T12:45:36;39.20;;;20.80;;
76848;SDS011;65814;51.134;16.980;2024-01-06T12:48:04;41.10;;;21.70;;
76848;SDS011;65814;51.134;16.980;2024-01-06T12:50:33;37.50;;;21.60;;
76848;SDS011;65814;51.134;16.980;2024-01-06T12:53:01;34.80;;;21.20;;
76848;SDS011;65814;51.134;16.980;2024-01-06T12:55:29;39.60;;;22.10;;
76848;SDS011;65814;51.134;16.980;2024-01-06T12:57:57;39.90;;;21.20;;
76848;SDS011;65814;51.134;16.980;2024-01-06T13:00:28;38.10;;;20.70;;
76848;SDS011;65814;51.134;16.980;2024-01-06T13:02:59;34.40;;;19.40;;
76848;SDS011;65814;51.134;16.980;2024-01-06T13:05:27;37.10;;;20.40;;
76848;SDS011;65814;51.134;16.980;2024-01-06T13:07:55;42.30;;;22.00;;
76848;SDS011;65814;51.134;16.980;2024-01-06T13:10:25;38.00;;;21.50;;
76848;SDS011;65814;51.134;16.980;2024-01-06T13:12:53;41.00;;;21.10;;
76848;SDS011;65814;51.134;16.980;2024-01-06T13:15:21;42.40;;;21.80;;
76848;SDS011;65814;51.134;16.980;2024-01-06T13:17:49;43.70;;;21.00;;
76848;SDS011;65814;51.134;16.980;2024-01-06T13:20:19;43.20;;;22.90;;
76848;SDS011;65814;51.134;16.980;2024-01-06T13:22:48;35.60;;;19.70;;
76848;SDS011;65814;51.134;16.980;2024-01-06T13:25:18;35.50;;;19.00;;
76848;SDS011;65814;51.134;16.980;2024-01-06T13:27:47;42.60;;;21.60;;
76848;SDS011;65814;51.134;16.980;2024-01-06T13:30:16;38.90;;;20.10;;
76848;SDS011;65814;51.134;16.980;2024-01-06T13:32:46;37.30;;;19.60;;
76848;SDS011;65814;51.134;16.980;2024-01-06T13:35:14;37.00;;;20.00;;
76848;SDS011;65814;51.134;16.980;2024-01-06T13:37:42;41.40;;;21.50;;
76848;SDS011;65814;51.134;16.980;2024-01-06T13:40:11;39.70;;;20.40;;
76848;SDS011;65814;51.134;16.980;2024-01-06T13:42:39;35.60;;;18.70;;
76848;SDS011;65814;51.134;16.980;2024-01-06T13:45:07;37.70;;;20.40;;
76848;SDS011;65814;51.134;16.980;2024-01-06T13:47:36;38.30;;;19.60;;
76848;SDS011;65814;51.134;16.980;2024-01-06T13:50:04;38.60;;;20.50;;
76848;SDS011;65814;51.134;16.980;2024-01-06T13:52:32;37.30;;;19.30;;
76848;SDS011;65814;51.134;16.980;2024-01-06T13:55:00;37.70;;;20.30;;
76848;SDS011;65814;51.134;16.980;2024-01-06T13:57:29;38.70;;;20.80;;
76848;SDS011;65814;51.134;16.980;2024-01-06T13:59:57;41.20;;;21.90;;
76848;SDS011;65814;51.134;16.980;2024-01-06T14:02:25;35.50;;;19.60;;
76848;SDS011;65814;51.134;16.980;2024-01-06T14:04:53;37.70;;;19.60;;
76848;SDS011;65814;51.134;16.980;2024-01-06T14:07:21;38.00;;;20.20;;
76848;SDS011;65814;51.134;16.980;2024-01-06T14:09:50;35.70;;;18.90;;
76848;SDS011;65814;51.134;16.980;2024-01-06T14:12:18;38.20;;;20.80;;
76848;SDS011;65814;51.134;16.980;2024-01-06T14:14:46;36.00;;;19.80;;
76848;SDS011;65814;51.134;16.980;2024-01-06T14:17:14;36.10;;;20.20;;
76848;SDS011;65814;51.134;16.980;2024-01-06T14:19:43;37.60;;;19.30;;
76848;SDS011;65814;51.134;16.980;2024-01-06T14:22:14;36.50;;;20.00;;
76848;SDS011;65814;51.134;16.980;2024-01-06T14:24:42;32.40;;;18.50;;
76848;SDS011;65814;51.134;16.980;2024-01-06T14:27:11;36.70;;;19.50;;
76848;SDS011;65814;51.134;16.980;2024-01-06T14:29:39;37.90;;;19.80;;